createdAt,value
2018-08-14T00:00:13.532Z,0.00
2018-08-14T00:01:13.717Z,0.00
2018-08-14T00:02:13.904Z,0.00
2018-08-14T00:03:14.063Z,0.00
2018-08-14T00:04:14.243Z,0.00
2018-08-14T00:05:14.433Z,0.00
2018-08-14T00:06:14.599Z,0.00
2018-08-14T00:07:15.460Z,0.00
2018-08-14T00:08:15.018Z,0.00
2018-08-14T00:09:15.205Z,0.00
2018-08-14T00:10:15.382Z,0.00
2018-08-14T00:11:15.572Z,0.00
2018-08-14T00:12:15.755Z,0.00
2018-08-14T00:13:15.937Z,0.00
2018-08-14T00:14:16.119Z,0.00
2018-08-14T00:15:16.300Z,0.00
2018-08-14T00:16:16.479Z,0.00
2018-08-14T00:17:16.707Z,0.00
2018-08-14T00:18:16.832Z,0.00
2018-08-14T00:19:17.021Z,0.00
2018-08-14T00:20:17.211Z,0.00
2018-08-14T00:21:17.383Z,0.00
2018-08-14T00:22:17.562Z,0.00
2018-08-14T00:23:17.747Z,0.00
2018-08-14T00:24:17.935Z,0.00
2018-08-14T00:25:18.099Z,0.00
2018-08-14T00:26:18.275Z,0.00
2018-08-14T00:27:18.483Z,0.00
2018-08-14T00:28:18.640Z,0.00
2018-08-14T00:29:18.823Z,0.00
2018-08-14T00:30:19.008Z,0.00
2018-08-14T00:31:19.190Z,0.00
2018-08-14T00:32:19.372Z,0.00
2018-08-14T00:33:19.549Z,0.00
2018-08-14T00:34:19.747Z,0.00
2018-08-14T00:35:19.908Z,0.00
2018-08-14T00:36:20.095Z,0.00
2018-08-14T00:37:20.276Z,0.00
2018-08-14T00:38:20.457Z,0.00
2018-08-14T00:39:20.643Z,0.00
2018-08-14T00:40:20.828Z,0.00
2018-08-14T00:41:21.258Z,0.00
2018-08-14T00:42:21.184Z,0.00
2018-08-14T00:43:21.363Z,0.00
2018-08-14T00:44:21.538Z,0.00
2018-08-14T00:45:21.720Z,0.00
2018-08-14T00:46:21.901Z,0.00
2018-08-14T00:47:22.074Z,0.00
2018-08-14T00:48:22.266Z,0.00
2018-08-14T00:49:22.452Z,0.00
2018-08-14T00:50:22.641Z,0.00
2018-08-14T00:51:22.814Z,0.00
2018-08-14T00:52:23.007Z,0.00
2018-08-14T00:53:23.187Z,0.00
2018-08-14T00:54:23.364Z,0.00
2018-08-14T00:55:23.553Z,0.00
2018-08-14T00:56:23.729Z,0.00
2018-08-14T00:57:23.908Z,0.00
2018-08-14T00:58:24.345Z,0.00
2018-08-14T00:59:24.273Z,0.00
2018-08-14T01:00:24.454Z,0.00
2018-08-14T01:01:24.663Z,0.00
2018-08-14T01:02:24.823Z,0.00
2018-08-14T01:03:25.017Z,0.00
2018-08-14T01:04:25.190Z,0.00
2018-08-14T01:05:25.368Z,0.00
2018-08-14T01:06:25.541Z,0.00
2018-08-14T01:07:25.722Z,0.00
2018-08-14T01:08:25.901Z,0.00
2018-08-14T01:09:26.076Z,0.00
2018-08-14T01:10:26.260Z,0.00
2018-08-14T01:11:26.442Z,0.00
2018-08-14T01:12:26.613Z,0.00
2018-08-14T01:13:26.799Z,0.00
2018-08-14T01:14:26.979Z,0.00
2018-08-14T01:15:27.170Z,0.00
2018-08-14T01:16:27.351Z,0.00
2018-08-14T01:17:27.536Z,0.00
2018-08-14T01:18:27.737Z,0.00
2018-08-14T01:19:27.913Z,0.00
2018-08-14T01:20:28.096Z,0.00
2018-08-14T01:21:28.275Z,0.00
2018-08-14T01:22:28.450Z,0.00
2018-08-14T01:23:28.624Z,0.00
2018-08-14T01:24:28.802Z,0.00
2018-08-14T01:25:28.981Z,0.00
2018-08-14T01:26:29.163Z,0.00
2018-08-14T01:27:29.347Z,0.00
2018-08-14T01:28:29.527Z,0.00
2018-08-14T01:29:29.719Z,0.00
2018-08-14T01:30:29.903Z,0.00
2018-08-14T01:31:30.082Z,0.00
2018-08-14T01:32:30.502Z,0.00
2018-08-14T01:33:30.448Z,0.00
2018-08-14T01:34:30.621Z,0.00
2018-08-14T01:35:30.805Z,0.00
2018-08-14T01:36:31.004Z,0.00
2018-08-14T01:37:31.169Z,0.00
2018-08-14T01:38:31.351Z,0.00
2018-08-14T01:39:31.549Z,0.00
2018-08-14T01:40:31.709Z,0.00
2018-08-14T01:41:31.888Z,0.00
2018-08-14T01:42:32.070Z,0.00
2018-08-14T01:43:32.258Z,0.00
2018-08-14T01:44:32.445Z,0.00
2018-08-14T01:45:32.632Z,0.00
2018-08-14T01:46:32.804Z,0.00
2018-08-14T01:47:32.987Z,0.00
2018-08-14T01:48:33.171Z,0.00
2018-08-14T01:49:33.363Z,0.00
2018-08-14T01:50:33.539Z,0.00
2018-08-14T01:51:33.722Z,0.00
2018-08-14T01:52:33.917Z,0.00
2018-08-14T01:53:34.085Z,0.00
2018-08-14T01:54:34.263Z,0.00
2018-08-14T01:55:34.446Z,0.00
2018-08-14T01:56:34.616Z,0.00
2018-08-14T01:57:34.805Z,0.00
2018-08-14T01:58:34.992Z,0.00
2018-08-14T01:59:35.169Z,0.00
2018-08-14T02:00:35.357Z,0.00
2018-08-14T02:01:35.539Z,0.00
2018-08-14T02:02:35.718Z,0.00
2018-08-14T02:03:35.887Z,0.00
2018-08-14T02:04:36.092Z,0.00
2018-08-14T02:05:36.269Z,0.00
2018-08-14T02:06:36.460Z,0.00
2018-08-14T02:07:36.637Z,0.00
2018-08-14T02:08:36.819Z,0.00
2018-08-14T02:09:37.007Z,0.00
2018-08-14T02:10:37.193Z,0.00
2018-08-14T02:11:37.368Z,0.00
2018-08-14T02:12:37.544Z,0.00
2018-08-14T02:13:37.725Z,0.00
2018-08-14T02:14:37.902Z,0.00
2018-08-14T02:15:38.082Z,0.00
2018-08-14T02:16:38.261Z,0.00
2018-08-14T02:17:38.449Z,0.00
2018-08-14T02:18:38.635Z,0.00
2018-08-14T02:19:38.819Z,0.00
2018-08-14T02:20:39.003Z,0.00
2018-08-14T02:21:39.179Z,0.00
2018-08-14T02:22:39.362Z,0.00
2018-08-14T02:23:39.544Z,0.00
2018-08-14T02:24:39.740Z,0.00
2018-08-14T02:25:39.921Z,0.00
2018-08-14T02:26:40.103Z,0.00
2018-08-14T02:27:40.289Z,0.00
2018-08-14T02:28:40.469Z,0.00
2018-08-14T02:29:40.659Z,0.00
2018-08-14T02:30:40.840Z,0.00
2018-08-14T02:31:41.019Z,0.00
2018-08-14T02:32:41.201Z,0.00
2018-08-14T02:33:41.381Z,0.00
2018-08-14T02:34:41.559Z,0.00
2018-08-14T02:35:41.736Z,0.00
2018-08-14T02:36:41.910Z,0.00
2018-08-14T02:37:42.102Z,0.00
2018-08-14T02:38:42.284Z,0.00
2018-08-14T02:39:42.470Z,0.00
2018-08-14T02:40:42.886Z,0.00
2018-08-14T02:41:42.830Z,0.00
2018-08-14T02:42:43.003Z,0.00
2018-08-14T02:43:43.190Z,0.00
2018-08-14T02:44:43.368Z,0.00
2018-08-14T02:45:43.550Z,0.00
2018-08-14T02:46:43.726Z,0.00
2018-08-14T02:47:44.154Z,0.00
2018-08-14T02:48:44.103Z,0.00
2018-08-14T02:49:44.279Z,0.00
2018-08-14T02:50:44.460Z,0.00
2018-08-14T02:51:44.641Z,0.00
2018-08-14T02:52:44.839Z,0.00
2018-08-14T02:53:45.006Z,0.00
2018-08-14T02:54:45.197Z,0.00
2018-08-14T02:55:45.371Z,0.00
2018-08-14T02:56:45.553Z,0.00
2018-08-14T02:57:45.734Z,0.00
2018-08-14T02:58:45.921Z,0.00
2018-08-14T02:59:46.092Z,0.00
2018-08-14T03:00:46.289Z,0.00
2018-08-14T03:01:46.467Z,0.00
2018-08-14T03:02:46.647Z,0.00
2018-08-14T03:03:46.830Z,0.00
2018-08-14T03:04:47.018Z,0.00
2018-08-14T03:05:47.194Z,0.00
2018-08-14T03:06:47.380Z,0.00
2018-08-14T03:07:47.567Z,0.00
2018-08-14T03:08:47.751Z,0.00
2018-08-14T03:09:47.931Z,0.00
2018-08-14T03:10:48.111Z,0.00
2018-08-14T03:11:48.533Z,0.00
2018-08-14T03:12:48.475Z,0.00
2018-08-14T03:13:48.655Z,0.00
2018-08-14T03:14:48.845Z,0.00
2018-08-14T03:15:49.023Z,0.00
2018-08-14T03:16:49.218Z,0.00
2018-08-14T03:17:49.384Z,0.00
2018-08-14T03:18:49.559Z,0.00
2018-08-14T03:19:49.748Z,0.00
2018-08-14T03:20:49.947Z,0.00
2018-08-14T03:22:50.265Z,0.00
2018-08-14T03:23:50.443Z,0.00
2018-08-14T03:24:50.626Z,0.00
2018-08-14T03:25:50.811Z,0.00
2018-08-14T03:26:50.999Z,0.00
2018-08-14T03:27:51.187Z,0.00
2018-08-14T03:28:51.367Z,0.00
2018-08-14T03:29:51.543Z,0.00
2018-08-14T03:30:51.726Z,0.00
2018-08-14T03:31:51.907Z,0.00
2018-08-14T03:32:52.088Z,0.00
2018-08-14T03:33:52.267Z,0.00
2018-08-14T03:34:52.464Z,0.00
2018-08-14T03:35:52.637Z,0.00
2018-08-14T03:36:52.826Z,0.00
2018-08-14T03:37:53.008Z,0.00
2018-08-14T03:38:53.203Z,0.00
2018-08-14T03:39:53.383Z,0.00
2018-08-14T03:40:53.577Z,0.00
2018-08-14T03:41:53.750Z,0.00
2018-08-14T03:42:53.921Z,0.00
2018-08-14T03:43:54.125Z,0.00
2018-08-14T03:44:54.308Z,0.00
2018-08-14T03:45:54.488Z,0.00
2018-08-14T03:46:54.657Z,0.00
2018-08-14T03:47:54.838Z,0.00
2018-08-14T03:48:55.012Z,0.00
2018-08-14T03:49:55.191Z,0.00
2018-08-14T03:50:55.375Z,0.00
2018-08-14T03:51:55.550Z,0.00
2018-08-14T03:52:55.733Z,0.00
2018-08-14T03:53:55.936Z,0.00
2018-08-14T03:54:56.129Z,0.00
2018-08-14T03:56:56.478Z,0.00
2018-08-14T03:57:56.660Z,0.00
2018-08-14T03:58:56.831Z,0.00
2018-08-14T03:59:57.405Z,0.00
2018-08-14T04:00:57.221Z,0.00
2018-08-14T04:01:57.398Z,0.00
2018-08-14T04:02:57.574Z,0.00
2018-08-14T04:03:57.750Z,0.00
2018-08-14T04:04:57.934Z,0.00
2018-08-14T04:05:58.120Z,0.00
2018-08-14T04:06:58.285Z,0.00
2018-08-14T04:07:58.471Z,0.00
2018-08-14T04:08:58.645Z,0.00
2018-08-14T04:09:58.819Z,0.00
2018-08-14T04:10:59.008Z,0.00
2018-08-14T04:11:59.182Z,5.63
2018-08-14T04:12:59.415Z,5.63
2018-08-14T04:13:59.555Z,5.63
2018-08-14T04:14:59.735Z,5.63
2018-08-14T04:15:59.915Z,5.63
2018-08-14T04:17:00.099Z,5.63
2018-08-14T04:18:00.291Z,5.63
2018-08-14T04:19:00.472Z,5.63
2018-08-14T04:20:00.654Z,5.63
2018-08-14T04:21:00.827Z,5.63
2018-08-14T04:22:01.005Z,5.63
2018-08-14T04:23:01.199Z,5.63
2018-08-14T04:24:01.375Z,5.63
2018-08-14T04:25:01.562Z,5.63
2018-08-14T04:26:01.745Z,5.63
2018-08-14T04:27:01.924Z,5.63
2018-08-14T04:28:02.122Z,11.25
2018-08-14T04:29:02.298Z,11.25
2018-08-14T04:31:02.656Z,11.25
2018-08-14T04:32:02.847Z,11.25
2018-08-14T04:33:03.038Z,11.25
2018-08-14T04:34:03.239Z,11.25
2018-08-14T04:35:03.414Z,11.25
2018-08-14T04:36:03.595Z,11.25
2018-08-14T04:37:03.779Z,11.25
2018-08-14T04:38:03.958Z,11.25
2018-08-14T04:39:04.137Z,11.25
2018-08-14T04:40:04.335Z,11.25
2018-08-14T04:41:04.513Z,11.25
2018-08-14T04:42:04.699Z,11.25
2018-08-14T04:43:04.881Z,11.25
2018-08-14T04:44:05.368Z,11.25
2018-08-14T04:45:05.239Z,11.25
2018-08-14T04:46:05.421Z,11.25
2018-08-14T04:47:05.606Z,11.25
2018-08-14T04:48:05.788Z,11.25
2018-08-14T04:49:05.982Z,11.25
2018-08-14T04:50:06.173Z,11.25
2018-08-14T04:51:06.642Z,11.25
2018-08-14T04:52:06.561Z,16.88
2018-08-14T04:53:06.743Z,16.88
2018-08-14T04:54:06.927Z,16.88
2018-08-14T04:55:07.097Z,16.88
2018-08-14T04:56:07.305Z,16.88
2018-08-14T04:57:07.461Z,16.88
2018-08-14T04:58:07.631Z,16.88
2018-08-14T04:59:07.815Z,22.50
2018-08-14T05:00:08.002Z,22.50
2018-08-14T05:01:08.185Z,22.50
2018-08-14T05:02:08.363Z,22.50
2018-08-14T05:03:08.586Z,28.13
2018-08-14T05:04:08.740Z,28.13
2018-08-14T05:05:08.907Z,33.75
2018-08-14T05:06:09.088Z,56.25
2018-08-14T05:07:09.269Z,33.75
2018-08-14T05:08:09.453Z,39.38
2018-08-14T05:09:09.642Z,39.38
2018-08-14T05:10:09.842Z,67.50
2018-08-14T05:11:10.045Z,50.63
2018-08-14T05:12:10.223Z,39.38
2018-08-14T05:13:10.406Z,33.75
2018-08-14T05:14:10.581Z,33.75
2018-08-14T05:15:10.775Z,28.13
2018-08-14T05:16:10.950Z,28.13
2018-08-14T05:17:11.132Z,28.13
2018-08-14T05:18:11.327Z,28.13
2018-08-14T05:19:11.502Z,33.75
2018-08-14T05:20:11.692Z,33.75
2018-08-14T05:21:11.869Z,45.00
2018-08-14T05:22:12.050Z,45.00
2018-08-14T05:23:12.229Z,50.63
2018-08-14T05:24:12.422Z,50.63
2018-08-14T05:25:12.606Z,56.25
2018-08-14T05:26:12.776Z,61.88
2018-08-14T05:27:12.952Z,67.50
2018-08-14T05:28:13.141Z,67.50
2018-08-14T05:29:13.330Z,61.88
2018-08-14T05:30:13.521Z,61.88
2018-08-14T05:31:13.708Z,61.88
2018-08-14T05:32:13.888Z,61.88
2018-08-14T05:33:14.133Z,61.88
2018-08-14T05:34:14.247Z,67.50
2018-08-14T05:35:14.429Z,73.13
2018-08-14T05:36:14.610Z,78.75
2018-08-14T05:37:14.805Z,78.75
2018-08-14T05:38:14.991Z,95.63
2018-08-14T05:39:15.167Z,101.25
2018-08-14T05:40:15.337Z,95.63
2018-08-14T05:41:15.516Z,90.00
2018-08-14T05:42:15.696Z,90.00
2018-08-14T05:43:15.877Z,95.63
2018-08-14T05:44:16.063Z,95.63
2018-08-14T05:45:16.250Z,95.63
2018-08-14T05:46:16.431Z,95.63
2018-08-14T05:47:16.611Z,95.63
2018-08-14T05:48:16.787Z,95.63
2018-08-14T05:49:16.970Z,95.63
2018-08-14T05:50:17.160Z,90.00
2018-08-14T05:51:17.328Z,90.00
2018-08-14T05:52:17.507Z,90.00
2018-08-14T05:53:17.681Z,101.25
2018-08-14T05:54:17.863Z,112.50
2018-08-14T05:55:18.043Z,140.63
2018-08-14T05:56:18.223Z,163.13
2018-08-14T05:57:18.418Z,163.13
2018-08-14T05:58:18.587Z,146.25
2018-08-14T06:00:18.961Z,174.38
2018-08-14T06:01:19.133Z,191.25
2018-08-14T06:02:19.304Z,219.38
2018-08-14T06:03:19.500Z,292.50
2018-08-14T06:04:19.685Z,292.50
2018-08-14T06:05:19.862Z,270.00
2018-08-14T06:06:20.055Z,247.50
2018-08-14T06:07:20.238Z,219.38
2018-08-14T06:08:20.396Z,219.38
2018-08-14T06:09:20.578Z,225.00
2018-08-14T06:10:20.756Z,230.63
2018-08-14T06:11:20.918Z,225.00
2018-08-14T06:12:21.085Z,258.75
2018-08-14T06:13:21.259Z,298.13
2018-08-14T06:14:21.475Z,281.25
2018-08-14T06:15:21.601Z,241.88
2018-08-14T06:16:21.776Z,202.50
2018-08-14T06:17:21.947Z,213.75
2018-08-14T06:18:22.143Z,241.88
2018-08-14T06:19:22.342Z,281.25
2018-08-14T06:20:22.496Z,337.50
2018-08-14T06:21:22.641Z,376.88
2018-08-14T06:22:22.827Z,393.75
2018-08-14T06:23:23.010Z,388.13
2018-08-14T06:24:23.160Z,315.00
2018-08-14T06:25:23.457Z,281.25
2018-08-14T06:26:23.508Z,270.00
2018-08-14T06:27:23.715Z,236.25
2018-08-14T06:28:23.914Z,202.50
2018-08-14T06:29:24.035Z,196.88
2018-08-14T06:30:24.223Z,208.13
2018-08-14T06:31:24.390Z,208.13
2018-08-14T06:32:24.573Z,191.25
2018-08-14T06:33:24.776Z,168.75
2018-08-14T06:34:24.938Z,146.25
2018-08-14T06:35:25.170Z,135.00
2018-08-14T06:36:25.282Z,129.38
2018-08-14T06:37:25.480Z,123.75
2018-08-14T06:38:25.694Z,112.50
2018-08-14T06:39:25.834Z,106.88
2018-08-14T06:40:26.004Z,118.13
2018-08-14T06:41:26.202Z,163.13
2018-08-14T06:42:26.387Z,264.38
2018-08-14T06:43:26.555Z,388.13
2018-08-14T06:44:26.719Z,438.75
2018-08-14T06:45:26.893Z,540.00
2018-08-14T06:46:27.121Z,1254.38
2018-08-14T06:47:27.300Z,2131.88
2018-08-14T06:48:27.439Z,2120.63
2018-08-14T06:49:27.610Z,973.13
2018-08-14T06:50:27.786Z,714.38
2018-08-14T06:51:27.958Z,2317.50
2018-08-14T06:52:28.178Z,1946.25
2018-08-14T06:53:28.343Z,1248.75
2018-08-14T06:54:28.515Z,630.00
2018-08-14T06:55:28.667Z,444.38
2018-08-14T06:56:29.094Z,540.00
2018-08-14T06:57:29.001Z,1113.75
2018-08-14T06:58:29.177Z,658.13
2018-08-14T06:59:29.339Z,360.00
2018-08-14T07:00:29.549Z,568.13
2018-08-14T07:01:29.684Z,916.88
2018-08-14T07:02:29.866Z,2109.38
2018-08-14T07:03:30.017Z,2008.13
2018-08-14T07:04:30.188Z,2120.63
2018-08-14T07:05:30.363Z,416.25
2018-08-14T07:06:30.562Z,303.75
2018-08-14T07:07:30.767Z,337.50
2018-08-14T07:08:30.947Z,298.13
2018-08-14T07:09:31.156Z,258.75
2018-08-14T07:10:31.299Z,286.88
2018-08-14T07:11:31.478Z,174.38
2018-08-14T07:12:31.673Z,151.88
2018-08-14T07:13:31.836Z,157.50
2018-08-14T07:14:32.012Z,174.38
2018-08-14T07:15:32.208Z,174.38
2018-08-14T07:16:32.394Z,219.38
2018-08-14T07:17:32.555Z,219.38
2018-08-14T07:18:32.735Z,185.63
2018-08-14T07:19:32.914Z,185.63
2018-08-14T07:20:33.067Z,157.50
2018-08-14T07:21:33.255Z,135.00
2018-08-14T07:22:33.405Z,140.63
2018-08-14T07:23:33.582Z,140.63
2018-08-14T07:24:33.750Z,146.25
2018-08-14T07:25:33.949Z,157.50
2018-08-14T07:26:34.105Z,168.75
2018-08-14T07:27:34.288Z,168.75
2018-08-14T07:28:34.533Z,174.38
2018-08-14T07:30:34.784Z,213.75
2018-08-14T07:31:34.953Z,202.50
2018-08-14T07:32:35.132Z,202.50
2018-08-14T07:33:35.302Z,219.38
2018-08-14T07:34:35.471Z,281.25
2018-08-14T07:35:35.669Z,298.13
2018-08-14T07:36:35.868Z,348.75
2018-08-14T07:37:36.024Z,230.63
2018-08-14T07:38:36.272Z,168.75
2018-08-14T07:39:36.384Z,151.88
2018-08-14T07:40:37.100Z,157.50
2018-08-14T07:41:37.570Z,180.00
2018-08-14T07:42:36.967Z,157.50
2018-08-14T07:43:37.137Z,112.50
2018-08-14T07:44:37.295Z,101.25
2018-08-14T07:45:37.493Z,106.88
2018-08-14T07:46:37.654Z,123.75
2018-08-14T07:47:37.822Z,163.13
2018-08-14T07:48:37.998Z,213.75
2018-08-14T07:49:38.171Z,270.00
2018-08-14T07:50:38.366Z,286.88
2018-08-14T07:51:38.539Z,281.25
2018-08-14T07:52:38.742Z,286.88
2018-08-14T07:53:38.967Z,253.13
2018-08-14T07:54:39.104Z,247.50
2018-08-14T07:55:39.282Z,286.88
2018-08-14T07:56:39.472Z,365.63
2018-08-14T07:57:39.684Z,388.13
2018-08-14T07:58:39.844Z,388.13
2018-08-14T07:59:40.018Z,331.88
2018-08-14T08:00:40.178Z,320.63
2018-08-14T08:01:40.390Z,315.00
2018-08-14T08:02:40.567Z,253.13
2018-08-14T08:03:40.768Z,236.25
2018-08-14T08:04:40.945Z,230.63
2018-08-14T08:05:41.093Z,219.38
2018-08-14T08:06:41.293Z,225.00
2018-08-14T08:07:41.443Z,208.13
2018-08-14T08:08:41.650Z,219.38
2018-08-14T08:09:41.817Z,225.00
2018-08-14T08:10:42.243Z,236.25
2018-08-14T08:11:42.174Z,292.50
2018-08-14T08:12:42.368Z,320.63
2018-08-14T08:13:42.582Z,309.38
2018-08-14T08:14:42.771Z,298.13
2018-08-14T08:15:42.930Z,315.00
2018-08-14T08:16:43.112Z,315.00
2018-08-14T08:17:43.290Z,337.50
2018-08-14T08:18:43.482Z,376.88
2018-08-14T08:19:43.689Z,405.00
2018-08-14T08:20:43.854Z,405.00
2018-08-14T08:21:44.003Z,376.88
2018-08-14T08:22:44.185Z,331.88
2018-08-14T08:23:44.368Z,320.63
2018-08-14T08:24:44.539Z,298.13
2018-08-14T08:25:44.728Z,303.75
2018-08-14T08:26:44.924Z,320.63
2018-08-14T08:27:45.128Z,309.38
2018-08-14T08:28:45.355Z,298.13
2018-08-14T08:29:45.543Z,298.13
2018-08-14T08:30:45.749Z,309.38
2018-08-14T08:31:45.913Z,331.88
2018-08-14T08:32:46.682Z,388.13
2018-08-14T08:33:46.331Z,433.13
2018-08-14T08:34:46.528Z,450.00
2018-08-14T08:35:46.702Z,472.50
2018-08-14T08:36:46.901Z,478.13
2018-08-14T08:37:47.079Z,478.13
2018-08-14T08:38:47.275Z,483.75
2018-08-14T08:39:47.452Z,489.38
2018-08-14T08:40:47.623Z,472.50
2018-08-14T08:41:47.844Z,427.50
2018-08-14T08:42:48.012Z,376.88
2018-08-14T08:43:48.183Z,343.13
2018-08-14T08:44:48.359Z,326.25
2018-08-14T08:45:48.536Z,292.50
2018-08-14T08:46:48.764Z,281.25
2018-08-14T08:47:48.912Z,258.75
2018-08-14T08:48:49.126Z,253.13
2018-08-14T08:49:49.272Z,225.00
2018-08-14T08:50:49.476Z,213.75
2018-08-14T08:51:49.620Z,213.75
2018-08-14T08:52:49.799Z,208.13
2018-08-14T08:53:49.998Z,213.75
2018-08-14T08:54:50.188Z,208.13
2018-08-14T08:55:50.462Z,202.50
2018-08-14T08:56:50.624Z,225.00
2018-08-14T08:57:50.795Z,298.13
2018-08-14T08:58:50.991Z,410.63
2018-08-14T08:59:51.184Z,472.50
2018-08-14T09:00:51.362Z,461.25
2018-08-14T09:01:51.594Z,438.75
2018-08-14T09:02:51.811Z,416.25
2018-08-14T09:03:52.033Z,388.13
2018-08-14T09:04:52.175Z,348.75
2018-08-14T09:05:52.375Z,326.25
2018-08-14T09:06:52.521Z,326.25
2018-08-14T09:07:52.753Z,326.25
2018-08-14T09:08:52.885Z,326.25
2018-08-14T09:09:53.101Z,337.50
2018-08-14T09:10:53.244Z,337.50
2018-08-14T09:11:53.416Z,326.25
2018-08-14T09:12:53.599Z,320.63
2018-08-14T09:13:53.784Z,320.63
2018-08-14T09:14:54.017Z,320.63
2018-08-14T09:15:54.157Z,320.63
2018-08-14T09:16:54.327Z,315.00
2018-08-14T09:17:54.520Z,303.75
2018-08-14T09:18:54.697Z,292.50
2018-08-14T09:19:54.881Z,281.25
2018-08-14T09:20:55.037Z,281.25
2018-08-14T09:21:55.257Z,275.63
2018-08-14T09:22:55.404Z,270.00
2018-08-14T09:23:55.593Z,270.00
2018-08-14T09:24:55.777Z,270.00
2018-08-14T09:25:55.957Z,264.38
2018-08-14T09:26:56.184Z,258.75
2018-08-14T09:27:56.292Z,253.13
2018-08-14T09:28:56.460Z,247.50
2018-08-14T09:30:56.838Z,236.25
2018-08-14T09:31:56.991Z,230.63
2018-08-14T09:32:57.175Z,225.00
2018-08-14T09:33:57.450Z,213.75
2018-08-14T09:34:57.575Z,202.50
2018-08-14T09:35:58.615Z,202.50
2018-08-14T09:36:57.922Z,191.25
2018-08-14T09:37:58.040Z,180.00
2018-08-14T09:38:59.135Z,180.00
2018-08-14T09:39:58.451Z,180.00
2018-08-14T09:40:58.637Z,174.38
2018-08-14T09:41:58.822Z,174.38
2018-08-14T09:42:59.018Z,174.38
2018-08-14T09:43:59.210Z,174.38
2018-08-14T09:44:59.405Z,174.38
2018-08-14T09:45:59.590Z,174.38
2018-08-14T09:49:32.049Z,180.00
2018-08-14T09:50:32.241Z,180.00
2018-08-14T09:51:32.417Z,191.25
2018-08-14T09:52:32.597Z,196.88
2018-08-14T09:53:32.794Z,202.50
2018-08-14T09:54:32.979Z,219.38
2018-08-14T09:55:33.170Z,247.50
2018-08-14T09:56:33.342Z,258.75
2018-08-14T09:57:33.529Z,241.88
2018-08-14T09:58:33.729Z,225.00
2018-08-14T09:59:33.940Z,225.00
2018-08-14T10:00:34.102Z,253.13
2018-08-14T10:01:34.328Z,247.50
2018-08-14T10:02:34.472Z,236.25
2018-08-14T10:03:34.648Z,225.00
2018-08-14T10:04:34.839Z,225.00
2018-08-14T10:05:35.037Z,253.13
2018-08-14T10:06:35.214Z,281.25
2018-08-14T10:07:35.399Z,303.75
2018-08-14T10:08:35.588Z,309.38
2018-08-14T10:09:35.775Z,309.38
2018-08-14T10:10:35.970Z,292.50
2018-08-14T10:11:36.160Z,309.38
2018-08-14T10:12:36.347Z,320.63
2018-08-14T10:13:36.539Z,309.38
2018-08-14T10:14:36.718Z,275.63
2018-08-14T10:15:36.907Z,281.25
2018-08-14T10:16:37.092Z,303.75
2018-08-14T10:17:37.275Z,331.88
2018-08-14T10:18:37.480Z,360.00
2018-08-14T10:19:37.653Z,354.38
2018-08-14T10:20:37.919Z,343.13
2018-08-14T10:21:38.002Z,326.25
2018-08-14T10:22:38.191Z,292.50
2018-08-14T10:23:38.370Z,275.63
2018-08-14T10:24:38.554Z,253.13
2018-08-14T10:25:38.758Z,191.25
2018-08-14T10:26:38.973Z,151.88
2018-08-14T10:27:39.111Z,135.00
2018-08-14T10:28:39.455Z,140.63
2018-08-14T10:29:39.491Z,185.63
2018-08-14T10:30:39.671Z,230.63
2018-08-14T10:31:39.851Z,292.50
2018-08-14T10:32:40.036Z,326.25
2018-08-14T10:33:40.225Z,382.50
2018-08-14T10:34:40.423Z,450.00
2018-08-14T10:35:40.602Z,506.25
2018-08-14T10:36:40.788Z,511.88
2018-08-14T10:37:40.971Z,742.50
2018-08-14T10:38:41.190Z,821.25
2018-08-14T10:39:41.377Z,720.00
2018-08-14T10:40:41.536Z,714.38
2018-08-14T10:41:41.707Z,618.75
2018-08-14T10:42:41.886Z,646.88
2018-08-14T10:43:42.075Z,641.25
2018-08-14T10:44:42.263Z,562.50
2018-08-14T10:45:42.448Z,618.75
2018-08-14T10:46:42.627Z,562.50
2018-08-14T10:47:42.817Z,545.63
2018-08-14T10:48:43.008Z,506.25
2018-08-14T10:49:43.199Z,455.63
2018-08-14T10:50:43.374Z,489.38
2018-08-14T10:51:43.564Z,427.50
2018-08-14T10:52:43.758Z,376.88
2018-08-14T10:53:43.993Z,376.88
2018-08-14T10:54:44.179Z,399.38
2018-08-14T10:55:44.331Z,382.50
2018-08-14T10:56:44.530Z,348.75
2018-08-14T10:57:44.777Z,270.00
2018-08-14T10:58:44.993Z,230.63
2018-08-14T10:59:45.149Z,219.38
2018-08-14T11:00:45.319Z,202.50
2018-08-14T11:01:45.541Z,180.00
2018-08-14T11:02:45.741Z,151.88
2018-08-14T11:03:45.894Z,151.88
2018-08-14T11:04:46.111Z,168.75
2018-08-14T11:05:46.247Z,163.13
2018-08-14T11:06:46.474Z,151.88
2018-08-14T11:07:46.617Z,146.25
2018-08-14T11:08:46.803Z,151.88
2018-08-14T11:09:46.983Z,157.50
2018-08-14T11:10:47.278Z,174.38
2018-08-14T11:11:47.359Z,191.25
2018-08-14T11:12:47.540Z,208.13
2018-08-14T11:13:47.720Z,219.38
2018-08-14T11:14:47.912Z,230.63
2018-08-14T11:15:48.091Z,225.00
2018-08-14T11:16:48.309Z,225.00
2018-08-14T11:17:48.458Z,219.38
2018-08-14T11:18:48.635Z,230.63
2018-08-14T11:19:48.836Z,241.88
2018-08-14T11:20:49.029Z,253.13
2018-08-14T11:21:49.229Z,270.00
2018-08-14T11:22:49.381Z,270.00
2018-08-14T11:23:49.562Z,275.63
2018-08-14T11:24:49.755Z,281.25
2018-08-14T11:25:49.937Z,281.25
2018-08-14T11:26:50.113Z,286.88
2018-08-14T11:27:50.303Z,309.38
2018-08-14T11:28:50.458Z,315.00
2018-08-14T11:29:50.656Z,309.38
2018-08-14T11:31:51.029Z,292.50
2018-08-14T11:32:51.198Z,292.50
2018-08-14T11:33:51.381Z,298.13
2018-08-14T11:34:51.572Z,298.13
2018-08-14T11:35:52.018Z,292.50
2018-08-14T11:36:51.920Z,286.88
2018-08-14T11:37:52.112Z,264.38
2018-08-14T11:38:52.289Z,253.13
2018-08-14T11:39:52.496Z,253.13
2018-08-14T11:40:52.652Z,258.75
2018-08-14T11:41:52.837Z,264.38
2018-08-14T11:42:53.023Z,264.38
2018-08-14T11:43:53.199Z,253.13
2018-08-14T11:44:53.386Z,253.13
2018-08-14T11:45:53.572Z,264.38
2018-08-14T11:46:53.759Z,410.63
2018-08-14T11:47:53.938Z,405.00
2018-08-14T11:48:54.110Z,466.88
2018-08-14T11:49:54.302Z,483.75
2018-08-14T11:50:54.556Z,551.25
2018-08-14T11:51:54.678Z,528.75
2018-08-14T11:52:54.853Z,590.63
2018-08-14T11:53:55.025Z,596.25
2018-08-14T11:54:55.248Z,568.13
2018-08-14T11:55:55.406Z,427.50
2018-08-14T11:56:55.598Z,410.63
2018-08-14T11:57:55.763Z,360.00
2018-08-14T11:58:55.950Z,348.75
2018-08-14T11:59:56.136Z,348.75
2018-08-14T12:00:56.318Z,354.38
2018-08-14T12:01:56.563Z,331.88
2018-08-14T12:02:56.679Z,360.00
2018-08-14T12:03:56.877Z,331.88
2018-08-14T12:04:57.057Z,320.63
2018-08-14T12:05:57.241Z,298.13
2018-08-14T12:06:57.420Z,258.75
2018-08-14T12:07:57.619Z,213.75
2018-08-14T12:08:57.828Z,191.25
2018-08-14T12:09:58.048Z,185.63
2018-08-14T12:10:58.352Z,196.88
2018-08-14T12:11:58.503Z,202.50
2018-08-14T12:12:59.237Z,202.50
2018-08-14T12:13:58.865Z,208.13
2018-08-14T12:14:59.058Z,219.38
2018-08-14T12:15:59.270Z,230.63
2018-08-14T12:16:59.437Z,247.50
2018-08-14T12:17:59.641Z,258.75
2018-08-14T12:18:59.838Z,281.25
2018-08-14T12:20:00.016Z,303.75
2018-08-14T12:21:00.178Z,331.88
2018-08-14T12:22:00.373Z,511.88
2018-08-14T12:23:00.574Z,405.00
2018-08-14T12:24:00.750Z,466.88
2018-08-14T12:25:00.978Z,376.88
2018-08-14T12:26:01.095Z,376.88
2018-08-14T12:27:01.282Z,393.75
2018-08-14T12:28:01.451Z,376.88
2018-08-14T12:29:01.720Z,360.00
2018-08-14T12:30:02.087Z,343.13
2018-08-14T12:31:02.048Z,309.38
2018-08-14T12:32:02.194Z,281.25
2018-08-14T12:33:02.487Z,253.13
2018-08-14T12:34:02.611Z,225.00
2018-08-14T12:35:02.907Z,208.13
2018-08-14T12:36:02.933Z,196.88
2018-08-14T12:37:03.212Z,185.63
2018-08-14T12:38:03.296Z,185.63
2018-08-14T12:39:03.493Z,185.63
2018-08-14T12:40:03.687Z,196.88
2018-08-14T12:41:03.843Z,202.50
2018-08-14T12:42:03.987Z,213.75
2018-08-14T12:43:04.185Z,230.63
2018-08-14T12:44:04.431Z,253.13
2018-08-14T12:45:04.486Z,258.75
2018-08-14T12:46:04.684Z,270.00
2018-08-14T12:47:04.938Z,275.63
2018-08-14T12:48:05.661Z,270.00
2018-08-14T12:49:05.216Z,270.00
2018-08-14T12:50:05.420Z,264.38
2018-08-14T12:51:05.631Z,258.75
2018-08-14T12:52:05.853Z,258.75
2018-08-14T12:53:06.014Z,253.13
2018-08-14T12:54:06.289Z,236.25
2018-08-14T12:55:06.358Z,219.38
2018-08-14T12:56:06.569Z,219.38
2018-08-14T12:57:06.821Z,236.25
2018-08-14T12:58:07.055Z,253.13
2018-08-14T12:59:07.223Z,275.63